Time;durP1;ratioP1;P1;durP2;ratioP2;P2;SDS_P1;SDS_P2;PMS_P1;PMS_P2;Temp;Humidity;BMP_temperature;BMP_pressure;BME280_temperature;BME280_humidity;BME280_pressure;Samples;Min_cycle;Max_cycle;Signal;HPM_P1;HPM_P2
2022/08/09 00:01:14;;;;;;;6.55;4.22;;;15.90;99.90;;;;;;5013899;28;20407;-72
2022/08/09 00:03:39;;;;;;;6.82;3.90;;;17.20;99.90;;;;;;5030210;28;20406;-72
2022/08/09 00:06:05;;;;;;;7.10;4.15;;;15.90;99.90;;;;;;5029888;28;20089;-72
2022/08/09 00:08:31;;;;;;;6.55;3.97;;;15.80;99.90;;;;;;5013763;28;20041;-72
2022/08/09 00:10:58;;;;;;;7.57;4.43;;;15.60;99.90;;;;;;5031428;28;20052;-72
2022/08/09 00:13:24;;;;;;;9.20;4.53;;;16.00;99.90;;;;;;5013703;28;20511;-71
2022/08/09 00:15:49;;;;;;;4.97;3.60;;;15.80;99.90;;;;;;5032209;28;20080;-71
2022/08/09 00:18:16;;;;;;;5.30;4.60;;;15.80;99.90;;;;;;5035317;28;20038;-71
2022/08/09 00:20:41;;;;;;;8.77;4.07;;;15.90;99.90;;;;;;5017827;28;20549;-71
2022/08/09 00:23:07;;;;;;;7.15;4.50;;;15.80;99.90;;;;;;5035230;28;20033;-71
2022/08/09 00:25:32;;;;;;;5.28;3.88;;;15.70;99.90;;;;;;5017230;28;20132;-71
2022/08/09 00:27:58;;;;;;;5.18;4.00;;;15.70;99.90;;;;;;5017715;28;20391;-71
2022/08/09 00:30:24;;;;;;;5.82;4.43;;;15.80;99.90;;;;;;5017626;28;20107;-71
2022/08/09 00:32:49;;;;;;;7.22;4.32;;;15.70;99.90;;;;;;5017185;28;20041;-72
2022/08/09 00:35:15;;;;;;;6.00;4.45;;;15.70;99.90;;;;;;5033419;28;20034;-71
2022/08/09 00:37:40;;;;;;;7.00;4.55;;;16.40;99.90;;;;;;5034341;28;20049;-72
2022/08/09 00:40:06;;;;;;;7.30;4.05;;;15.60;99.90;;;;;;5035170;28;20045;-71
2022/08/09 00:42:32;;;;;;;8.30;4.53;;;15.50;99.90;;;;;;5017505;28;20422;-71
2022/08/09 00:44:58;;;;;;;5.75;4.25;;;15.60;99.90;;;;;;5034579;28;20039;-71
2022/08/09 00:47:23;;;;;;;10.23;4.80;;;15.60;99.90;;;;;;5033845;28;20041;-71
2022/08/09 00:49:49;;;;;;;8.95;4.63;;;15.50;99.90;;;;;;5016984;28;20569;-71
2022/08/09 00:52:15;;;;;;;9.40;5.50;;;15.60;99.90;;;;;;5017043;28;20041;-71
2022/08/09 00:54:41;;;;;;;7.40;4.72;;;15.60;99.90;;;;;;5034564;28;20038;-71
2022/08/09 00:57:06;;;;;;;6.03;4.45;;;15.60;99.90;;;;;;5033215;28;20045;-71
2022/08/09 00:59:32;;;;;;;6.53;4.10;;;15.60;99.90;;;;;;5033272;28;20518;-71
2022/08/09 01:02:00;;;;;;;5.80;4.55;;;15.60;99.90;;;;;;5033271;28;20121;-72
2022/08/09 01:04:59;;;;;;;8.13;5.15;;;15.60;99.90;;;;;;5033185;28;20049;-72
2022/08/09 01:07:35;;;;;;;6.60;5.15;;;15.60;99.90;;;;;;5008167;28;20041;-72
2022/08/09 01:10:41;;;;;;;7.72;5.55;;;15.50;99.90;;;;;;5000362;28;20044;-71
2022/08/09 01:13:45;;;;;;;6.85;4.72;;;15.40;99.90;;;;;;4992881;28;20488;-72
2022/08/09 01:16:11;;;;;;;8.75;5.03;;;15.60;99.90;;;;;;5016481;28;20464;-71
2022/08/09 01:18:42;;;;;;;6.32;4.95;;;15.70;99.90;;;;;;5016542;28;20037;-71
2022/08/09 01:21:46;;;;;;;6.60;5.10;;;15.50;99.90;;;;;;5016709;28;20056;-71
2022/08/09 01:24:17;;;;;;;7.60;4.80;;;15.30;99.90;;;;;;5016278;28;20041;-72
2022/08/09 01:26:51;;;;;;;6.60;4.93;;;15.20;99.90;;;;;;5016770;28;20044;-72
2022/08/09 01:29:21;;;;;;;9.05;5.03;;;15.30;99.90;;;;;;5034207;28;20049;-71
2022/08/09 01:31:49;;;;;;;5.85;4.57;;;15.20;99.90;;;;;;5032936;28;20115;-71
2022/08/09 01:34:18;;;;;;;5.72;4.68;;;15.30;99.90;;;;;;5033829;28;20140;-73
2022/08/09 01:36:46;;;;;;;7.70;5.30;;;15.10;99.90;;;;;;4999751;28;20053;-74
2022/08/09 01:39:15;;;;;;;6.70;4.95;;;15.30;99.90;;;;;;5032680;28;20049;-74
2022/08/09 01:41:41;;;;;;;7.57;5.45;;;15.30;99.90;;;;;;5033940;28;20037;-72
2022/08/09 01:44:08;;;;;;;8.77;5.55;;;15.20;99.90;;;;;;5033874;28;20045;-71
2022/08/09 01:46:38;;;;;;;6.60;5.20;;;15.00;99.90;;;;;;5016326;28;20048;-71
2022/08/09 01:49:14;;;;;;;9.60;4.80;;;15.20;99.90;;;;;;5033847;28;20045;-72
2022/08/09 01:51:51;;;;;;;6.97;5.35;;;15.20;99.90;;;;;;5015928;28;20041;-72
2022/08/09 01:54:18;;;;;;;7.40;5.20;;;15.00;99.90;;;;;;5033385;28;20052;-71
2022/08/09 01:56:47;;;;;;;10.13;5.50;;;15.50;99.90;;;;;;5015724;28;20041;-71
2022/08/09 01:59:17;;;;;;;7.60;4.93;;;15.10;99.90;;;;;;5015861;28;20045;-72
2022/08/09 02:01:45;;;;;;;6.35;4.72;;;15.70;99.90;;;;;;5015840;28;20038;-71
2022/08/09 02:04:13;;;;;;;7.53;5.50;;;15.10;99.90;;;;;;5015597;28;20043;-71
2022/08/09 02:09:28;;;;;;;6.85;5.15;;;15.10;99.90;;;;;;5015572;28;20052;-71
2022/08/09 02:11:54;;;;;;;5.70;4.53;;;15.10;99.90;;;;;;5032441;28;20387;-72
2022/08/09 02:14:21;;;;;;;8.38;5.30;;;15.00;99.90;;;;;;5032948;28;20037;-72
2022/08/09 02:16:48;;;;;;;7.65;4.88;;;15.00;99.90;;;;;;5015512;28;20411;-71
2022/08/09 02:19:13;;;;;;;7.30;5.38;;;14.90;99.90;;;;;;5033598;28;20441;-71
2022/08/09 02:21:44;;;;;;;5.50;4.82;;;15.20;99.90;;;;;;5031780;28;20041;-72
2022/08/09 02:24:13;;;;;;;7.72;5.00;;;14.90;99.90;;;;;;5015178;28;20079;-72
2022/08/09 02:26:40;;;;;;;6.20;5.15;;;15.10;99.90;;;;;;5031873;28;20045;-71
2022/08/09 02:29:25;;;;;;;9.38;4.82;;;14.80;99.90;;;;;;5033024;28;20048;-72
2022/08/09 02:32:00;;;;;;;7.03;5.03;;;14.90;99.90;;;;;;5032820;28;20037;-72
2022/08/09 02:34:31;;;;;;;14.10;6.20;;;15.00;99.90;;;;;;5015599;28;20098;-72
2022/08/09 02:36:59;;;;;;;7.70;5.53;;;14.80;99.90;;;;;;5014946;28;20128;-72
2022/08/09 02:39:33;;;;;;;6.57;5.68;;;15.00;99.90;;;;;;5032479;28;20493;-72
2022/08/09 02:42:07;;;;;;;6.82;5.28;;;14.90;99.90;;;;;;5015305;28;20502;-71
2022/08/09 02:44:47;;;;;;;7.43;5.00;;;14.90;99.90;;;;;;5031078;28;20097;-71
2022/08/09 02:47:15;;;;;;;6.60;4.72;;;14.90;99.90;;;;;;5031392;28;20128;-71
2022/08/09 02:49:57;;;;;;;11.60;5.38;;;14.80;99.90;;;;;;5015099;28;20037;-72
2022/08/09 02:52:28;;;;;;;5.47;4.40;;;14.80;99.90;;;;;;5014894;28;20499;-71
2022/08/09 02:54:54;;;;;;;5.88;4.70;;;14.70;99.90;;;;;;5032404;28;20347;-71
2022/08/09 02:57:21;;;;;;;6.70;5.00;;;14.80;99.90;;;;;;5014824;28;20507;-72
2022/08/09 02:59:49;;;;;;;8.85;5.07;;;14.80;99.90;;;;;;5032623;28;20411;-72
2022/08/09 03:02:15;;;;;;;6.72;5.40;;;14.60;99.90;;;;;;5031151;28;20048;-72
2022/08/09 03:04:42;;;;;;;6.63;5.50;;;14.80;99.90;;;;;;5030901;28;20087;-71
2022/08/09 03:07:10;;;;;;;8.93;5.18;;;14.80;99.90;;;;;;5014688;28;20438;-71
2022/08/09 03:09:37;;;;;;;6.25;5.35;;;14.70;99.90;;;;;;5014827;28;20116;-71
2022/08/09 03:12:03;;;;;;;7.90;5.07;;;14.70;99.90;;;;;;5032380;28;20042;-71
2022/08/09 03:14:30;;;;;;;12.80;5.32;;;14.60;99.90;;;;;;5030778;28;20499;-71
2022/08/09 03:16:59;;;;;;;6.22;4.63;;;14.60;99.90;;;;;;5014397;28;20116;-72
2022/08/09 03:19:26;;;;;;;9.57;5.25;;;15.40;99.90;;;;;;5032441;28;20037;-71
2022/08/09 03:21:52;;;;;;;7.40;5.20;;;14.70;99.90;;;;;;5014378;28;20075;-72
2022/08/09 03:24:18;;;;;;;6.00;4.95;;;14.50;99.90;;;;;;5014016;28;20030;-71
2022/08/09 03:26:46;;;;;;;6.28;4.90;;;14.50;99.90;;;;;;5031898;28;20045;-71
2022/08/09 03:29:13;;;;;;;9.15;5.38;;;14.50;99.90;;;;;;5030973;28;20053;-71
2022/08/09 03:31:40;;;;;;;7.78;4.95;;;14.40;99.90;;;;;;4998000;28;20042;-71
2022/08/09 03:34:06;;;;;;;7.53;5.20;;;14.40;99.90;;;;;;5013827;28;20099;-71
2022/08/09 03:36:32;;;;;;;6.13;5.35;;;14.40;99.90;;;;;;5014132;28;20037;-71
2022/08/09 03:38:58;;;;;;;7.18;4.95;;;14.30;99.90;;;;;;5014326;28;20060;-71
2022/08/09 03:41:24;;;;;;;8.30;5.55;;;14.40;99.90;;;;;;5014049;28;20044;-71
2022/08/09 03:43:50;;;;;;;7.43;5.25;;;14.40;99.90;;;;;;5031555;28;20084;-71
2022/08/09 03:46:15;;;;;;;9.50;5.40;;;14.50;99.90;;;;;;5030289;28;20034;-71
2022/08/09 03:48:43;;;;;;;7.95;5.32;;;14.40;99.90;;;;;;5013894;28;20507;-71
2022/08/09 03:51:10;;;;;;;7.65;5.15;;;14.40;99.90;;;;;;5030998;28;20042;-71
2022/08/09 03:53:38;;;;;;;7.25;5.63;;;14.50;99.90;;;;;;5014375;28;20056;-72
2022/08/09 03:56:04;;;;;;;8.75;5.30;;;14.50;99.90;;;;;;4997149;28;20045;-71
2022/08/09 03:58:31;;;;;;;8.27;5.55;;;14.50;99.90;;;;;;5013888;28;20625;-72
2022/08/09 04:00:57;;;;;;;7.80;5.35;;;14.50;99.90;;;;;;5013959;28;20045;-71
2022/08/09 04:03:23;;;;;;;6.82;5.40;;;14.20;99.90;;;;;;5013844;28;20042;-72
2022/08/09 04:05:49;;;;;;;8.52;5.55;;;14.30;99.90;;;;;;5013526;28;20045;-71
2022/08/09 04:08:14;;;;;;;7.93;5.47;;;14.40;99.90;;;;;;5014098;28;20068;-71
2022/08/09 04:10:40;;;;;;;8.98;5.47;;;14.50;99.90;;;;;;5030547;28;20514;-71
2022/08/09 04:13:09;;;;;;;7.38;5.00;;;14.30;99.90;;;;;;5031737;28;20128;-72
2022/08/09 04:15:35;;;;;;;7.25;5.63;;;15.00;99.90;;;;;;5013362;28;20042;-72
2022/08/09 04:18:03;;;;;;;6.88;5.00;;;14.20;99.90;;;;;;5031678;28;20044;-71
2022/08/09 04:20:28;;;;;;;8.07;5.38;;;14.30;99.90;;;;;;5013806;28;20048;-71
2022/08/09 04:22:54;;;;;;;6.40;5.38;;;14.10;99.90;;;;;;5013820;28;20037;-71
2022/08/09 04:25:20;;;;;;;9.20;6.03;;;14.20;99.90;;;;;;5013437;28;20042;-71
2022/08/09 04:27:45;;;;;;;7.57;5.38;;;14.20;99.90;;;;;;5030347;28;20069;-71
2022/08/09 04:30:13;;;;;;;7.78;5.25;;;14.20;99.90;;;;;;5014073;28;20467;-71
2022/08/09 04:32:39;;;;;;;8.80;5.90;;;14.40;99.90;;;;;;5031169;28;20494;-71
2022/08/09 04:35:07;;;;;;;8.88;5.10;;;14.20;99.90;;;;;;5013229;28;20041;-71
2022/08/09 04:37:33;;;;;;;7.43;5.05;;;14.20;99.90;;;;;;5031077;28;20037;-72
2022/08/09 04:39:58;;;;;;;8.52;5.80;;;14.30;99.90;;;;;;4997218;28;20037;-71
2022/08/09 04:42:28;;;;;;;9.45;4.95;;;14.40;99.90;;;;;;5029889;28;20033;-71
2022/08/09 04:44:54;;;;;;;5.80;4.30;;;14.40;99.90;;;;;;5030803;28;20503;-71
2022/08/09 04:47:21;;;;;;;9.25;5.35;;;14.30;99.90;;;;;;5031074;28;20381;-72
2022/08/09 04:49:46;;;;;;;7.95;5.25;;;14.50;99.90;;;;;;5031071;28;20049;-72
2022/08/09 04:52:12;;;;;;;9.05;4.95;;;14.30;99.90;;;;;;5013393;28;20057;-72
2022/08/09 04:54:37;;;;;;;9.68;5.30;;;14.30;99.90;;;;;;5013225;28;20490;-72
2022/08/09 04:57:03;;;;;;;7.80;5.03;;;14.40;99.90;;;;;;5013279;28;20052;-71
2022/08/09 04:59:29;;;;;;;9.13;5.45;;;14.80;99.90;;;;;;5013314;28;20124;-71
2022/08/09 05:01:54;;;;;;;9.80;5.75;;;14.60;99.90;;;;;;5014390;28;20047;-71
2022/08/09 05:04:20;;;;;;;8.65;5.50;;;15.00;99.90;;;;;;5033255;28;20037;-71
2022/08/09 05:06:46;;;;;;;7.95;5.93;;;14.60;99.90;;;;;;5016717;28;20046;-72
2022/08/09 05:09:11;;;;;;;7.38;5.88;;;14.60;99.90;;;;;;5016681;28;20052;-72
2022/08/09 05:11:37;;;;;;;8.52;5.10;;;14.90;99.90;;;;;;5016592;28;20045;-71
2022/08/09 05:14:03;;;;;;;11.63;6.03;;;14.80;99.90;;;;;;5034094;28;20515;-72
2022/08/09 05:16:30;;;;;;;8.98;6.03;;;;;;;;;;5017501;28;20483;-71
2022/08/09 05:18:56;;;;;;;9.55;5.50;;;14.80;99.90;;;;;;5016526;28;20491;-71
2022/08/09 05:21:21;;;;;;;9.63;6.75;;;14.70;99.90;;;;;;5034364;28;20045;-71
2022/08/09 05:23:47;;;;;;;6.47;5.38;;;14.80;99.90;;;;;;5016314;28;20037;-71
2022/08/09 05:26:12;;;;;;;10.20;6.75;;;14.80;99.90;;;;;;5016216;28;20037;-72
2022/08/09 05:28:38;;;;;;;9.05;6.22;;;15.10;99.90;;;;;;5000055;28;20033;-71
2022/08/09 05:31:03;;;;;;;9.60;6.30;;;15.00;99.90;;;;;;5016338;28;20393;-71
2022/08/09 05:33:29;;;;;;;11.35;7.70;;;15.20;99.90;;;;;;5032982;28;20107;-71
2022/08/09 05:35:55;;;;;;;9.35;6.88;;;14.90;99.90;;;;;;5015881;28;20395;-71
2022/08/09 05:38:20;;;;;;;11.43;6.25;;;15.20;99.90;;;;;;5032970;28;20038;-71
2022/08/09 05:40:46;;;;;;;9.70;6.53;;;15.30;99.90;;;;;;5034147;28;20037;-71
2022/08/09 05:43:11;;;;;;;9.23;6.72;;;15.40;99.90;;;;;;5016279;28;20146;-71
2022/08/09 05:45:37;;;;;;;7.70;6.10;;;15.60;99.90;;;;;;5015621;28;20044;-71
2022/08/09 05:48:03;;;;;;;10.95;6.45;;;15.80;99.90;;;;;;5016424;28;20124;-71
2022/08/09 05:50:29;;;;;;;11.02;6.40;;;15.60;99.90;;;;;;5033996;28;20033;-71
2022/08/09 05:52:54;;;;;;;12.65;6.68;;;15.50;99.90;;;;;;5033907;28;20083;-72
2022/08/09 05:55:21;;;;;;;8.95;6.85;;;15.60;99.90;;;;;;5015401;28;20072;-71
2022/08/09 05:57:47;;;;;;;12.82;6.60;;;15.80;99.90;;;;;;5015750;28;20051;-71
2022/08/09 06:00:13;;;;;;;8.75;6.07;;;16.00;99.90;;;;;;5015187;28;20517;-71
2022/08/09 06:02:39;;;;;;;8.73;5.85;;;15.90;99.90;;;;;;5022584;28;20124;-71
2022/08/09 06:05:05;;;;;;;10.85;6.03;;;16.00;99.90;;;;;;5012057;28;20112;-71
2022/08/09 06:07:31;;;;;;;8.55;6.18;;;16.20;99.90;;;;;;5030000;28;20041;-71
2022/08/09 06:09:57;;;;;;;9.63;5.45;;;16.30;99.90;;;;;;5007650;28;20461;-71
2022/08/09 06:12:22;;;;;;;9.20;5.53;;;16.40;99.90;;;;;;5029009;28;20029;-72
2022/08/09 06:14:48;;;;;;;7.95;5.95;;;16.50;99.90;;;;;;5010929;28;20041;-71
2022/08/09 06:17:14;;;;;;;8.95;5.50;;;16.50;99.90;;;;;;5011882;28;20038;-71
2022/08/09 06:19:39;;;;;;;11.15;5.90;;;16.80;99.90;;;;;;5011956;28;20510;-71
2022/08/09 06:22:05;;;;;;;8.68;4.78;;;16.50;99.90;;;;;;5011995;28;20037;-71
2022/08/09 06:24:31;;;;;;;8.07;4.40;;;16.90;99.90;;;;;;5028335;28;20041;-72
2022/08/09 06:26:57;;;;;;;6.93;4.70;;;17.10;99.90;;;;;;5011672;28;20052;-71
2022/08/09 06:29:23;;;;;;;8.85;5.03;;;17.10;99.90;;;;;;5020721;28;20522;-71
2022/08/09 06:31:48;;;;;;;8.27;4.80;;;17.30;99.90;;;;;;5008538;28;20041;-71
2022/08/09 06:34:14;;;;;;;7.75;5.65;;;17.20;99.90;;;;;;5017844;28;20057;-71
2022/08/09 06:36:40;;;;;;;7.97;5.30;;;17.50;99.90;;;;;;4996628;28;20132;-71
2022/08/09 06:39:09;;;;;;;8.13;5.70;;;17.50;99.90;;;;;;5012471;28;20034;-71
2022/08/09 06:41:36;;;;;;;13.10;6.30;;;17.90;99.90;;;;;;5014068;28;20048;-71
2022/08/09 06:44:02;;;;;;;7.32;5.30;;;17.50;99.90;;;;;;5013582;28;20064;-70
2022/08/09 06:46:27;;;;;;;8.02;5.40;;;17.70;99.90;;;;;;5033070;28;20095;-70
2022/08/09 06:48:53;;;;;;;12.02;4.97;;;18.00;99.90;;;;;;4998564;28;20041;-70
2022/08/09 06:51:18;;;;;;;9.55;5.55;;;17.90;99.90;;;;;;4998207;28;20036;-70
2022/08/09 06:53:44;;;;;;;10.18;5.13;;;17.90;99.90;;;;;;5014382;28;20040;-70
2022/08/09 06:56:10;;;;;;;11.05;5.53;;;17.80;99.90;;;;;;5041974;28;20076;-70
2022/08/09 06:58:36;;;;;;;10.48;6.45;;;18.60;99.90;;;;;;5033244;28;20494;-70
2022/08/09 07:01:02;;;;;;;9.45;5.15;;;18.00;99.90;;;;;;5009445;28;20049;-70
2022/08/09 07:03:27;;;;;;;6.60;4.30;;;18.40;99.90;;;;;;5003755;28;20620;-69
2022/08/09 07:05:54;;;;;;;7.68;5.20;;;18.40;99.90;;;;;;5029040;28;20120;-70
2022/08/09 07:08:20;;;;;;;6.93;5.20;;;18.50;99.90;;;;;;5011050;28;20463;-70
2022/08/09 07:10:45;;;;;;;11.35;5.78;;;18.50;99.90;;;;;;5013956;28;20079;-71
2022/08/09 07:13:11;;;;;;;9.43;5.25;;;18.60;99.90;;;;;;5031102;28;20418;-70
2022/08/09 07:15:36;;;;;;;7.72;4.65;;;19.10;99.90;;;;;;5046373;28;20124;-71
2022/08/09 07:18:03;;;;;;;7.45;4.22;;;18.80;99.90;;;;;;5005993;28;20120;-70
2022/08/09 07:20:28;;;;;;;6.45;4.20;;;18.90;99.90;;;;;;5010915;28;20052;-70
2022/08/09 07:22:54;;;;;;;5.30;3.47;;;19.00;99.90;;;;;;5012420;28;20041;-70
2022/08/09 07:25:20;;;;;;;6.53;3.30;;;19.10;99.90;;;;;;5013573;28;20045;-71
2022/08/09 07:27:46;;;;;;;12.82;3.83;;;19.20;99.90;;;;;;5011544;28;20045;-71
2022/08/09 07:30:12;;;;;;;3.90;3.05;;;19.40;99.90;;;;;;5021056;28;20030;-70
2022/08/09 07:32:39;;;;;;;3.80;2.67;;;19.50;99.90;;;;;;4976620;28;20526;-71
2022/08/09 07:35:07;;;;;;;5.47;2.65;;;19.60;99.90;;;;;;4991257;28;20052;-71
2022/08/09 07:37:32;;;;;;;3.78;2.17;;;19.30;99.90;;;;;;4993121;28;20037;-71
2022/08/09 07:39:58;;;;;;;6.57;2.70;;;20.20;99.90;;;;;;5005670;28;20040;-71
2022/08/09 07:42:23;;;;;;;5.30;2.38;;;19.60;99.90;;;;;;5013022;28;20037;-71
2022/08/09 07:44:49;;;;;;;5.93;2.20;;;19.70;99.90;;;;;;5011617;28;20034;-71
2022/08/09 07:47:15;;;;;;;5.55;3.15;;;19.80;99.90;;;;;;4994176;28;20381;-71
2022/08/09 07:49:41;;;;;;;4.13;1.77;;;19.50;99.90;;;;;;4993147;28;20038;-71
2022/08/09 07:52:07;;;;;;;7.88;1.60;;;19.90;99.90;;;;;;4993741;28;20108;-71
2022/08/09 07:54:33;;;;;;;1.98;1.70;;;20.80;99.90;;;;;;4993390;28;20077;-71
2022/08/09 07:56:58;;;;;;;4.53;1.80;;;19.60;99.90;;;;;;4992890;28;20054;-72
2022/08/09 07:59:24;;;;;;;3.03;1.45;;;20.00;99.90;;;;;;5010424;28;20458;-72
2022/08/09 08:01:49;;;;;;;3.75;1.85;;;19.60;99.90;;;;;;5031465;28;20076;-72
2022/08/09 08:04:15;;;;;;;3.03;1.95;;;19.90;99.90;;;;;;4995618;28;20052;-72
2022/08/09 08:06:40;;;;;;;4.03;1.80;;;19.50;99.90;;;;;;5031160;28;20037;-71
2022/08/09 08:09:06;;;;;;;2.92;1.95;;;20.00;99.90;;;;;;5025524;28;20038;-72
2022/08/09 08:11:32;;;;;;;2.08;1.73;;;19.50;99.90;;;;;;4993896;28;20099;-72
2022/08/09 08:13:57;;;;;;;5.13;1.83;;;20.20;99.90;;;;;;4994074;28;20034;-72
2022/08/09 08:16:23;;;;;;;4.68;1.73;;;19.90;99.90;;;;;;5023255;28;20469;-72
2022/08/09 08:18:49;;;;;;;5.28;1.90;;;20.20;99.90;;;;;;5038821;28;20041;-72
2022/08/09 08:21:14;;;;;;;2.72;1.83;;;20.40;99.90;;;;;;5003533;28;20042;-72
2022/08/09 08:23:40;;;;;;;2.53;1.58;;;20.20;99.90;;;;;;5012906;28;20049;-72
2022/08/09 08:26:06;;;;;;;5.00;1.80;;;20.00;99.90;;;;;;5030784;28;20190;-72
2022/08/09 08:28:31;;;;;;;4.60;1.95;;;20.00;99.90;;;;;;5031098;28;20099;-72
2022/08/09 08:30:57;;;;;;;2.55;1.50;;;20.40;99.90;;;;;;5016974;28;20084;-72
2022/08/09 08:33:23;;;;;;;3.25;1.52;;;20.60;99.90;;;;;;5018979;28;20120;-72
2022/08/09 08:35:48;;;;;;;3.72;1.73;;;20.50;99.90;;;;;;5030372;28;20104;-72
2022/08/09 08:38:14;;;;;;;2.17;1.23;;;20.80;99.90;;;;;;4999744;28;20033;-72
2022/08/09 08:40:40;;;;;;;5.65;1.25;;;20.70;99.90;;;;;;5016220;28;20041;-72
2022/08/09 08:43:06;;;;;;;1.45;0.90;;;20.80;99.90;;;;;;5017463;28;20075;-72
2022/08/09 08:45:34;;;;;;;3.42;1.40;;;20.30;99.90;;;;;;5024283;28;20073;-72
2022/08/09 08:48:00;;;;;;;1.90;0.93;;;21.00;99.90;;;;;;5017249;28;20029;-72
2022/08/09 08:50:26;;;;;;;1.83;0.95;;;20.50;99.90;;;;;;5016377;28;20033;-72
2022/08/09 08:52:52;;;;;;;1.50;0.70;;;20.70;99.90;;;;;;5034129;28;20037;-72
2022/08/09 08:55:18;;;;;;;1.88;0.60;;;20.70;99.90;;;;;;4999439;28;20037;-72
2022/08/09 08:57:44;;;;;;;2.38;0.75;;;20.60;99.90;;;;;;5034211;28;20045;-72
2022/08/09 09:00:11;;;;;;;2.72;0.55;;;20.40;99.90;;;;;;5034881;28;20050;-72
2022/08/09 09:02:38;;;;;;;3.83;1.00;;;20.30;99.90;;;;;;5023347;28;20033;-72
2022/08/09 09:05:04;;;;;;;1.90;1.05;;;20.70;99.90;;;;;;5036516;28;20487;-72
2022/08/09 09:07:32;;;;;;;3.65;0.80;;;20.20;99.90;;;;;;5008906;28;20049;-72
2022/08/09 09:09:57;;;;;;;6.45;1.00;;;20.30;99.90;;;;;;5014884;28;20411;-72
2022/08/09 09:12:30;;;;;;;2.90;1.17;;;20.00;99.90;;;;;;4997023;28;20042;-72
2022/08/09 09:14:58;;;;;;;1.75;0.73;;;20.70;99.90;;;;;;5032268;28;20045;-72
2022/08/09 09:17:24;;;;;;;2.13;0.80;;;20.90;99.90;;;;;;5012508;28;20042;-72
2022/08/09 09:19:51;;;;;;;1.67;0.50;;;;;;;;;;5015500;28;20072;-71
2022/08/09 09:22:18;;;;;;;1.73;0.70;;;21.80;99.90;;;;;;5033658;28;20045;-72
2022/08/09 09:24:52;;;;;;;1.88;0.60;;;22.60;99.90;;;;;;5014687;28;20033;-72
2022/08/09 09:27:24;;;;;;;3.10;1.42;;;22.30;99.90;;;;;;5016227;28;20103;-72
2022/08/09 09:29:50;;;;;;;3.85;0.70;;;22.40;99.90;;;;;;5014354;28;20135;-72
2022/08/09 09:32:27;;;;;;;5.22;1.25;;;22.60;99.90;;;;;;5036241;28;20033;-72
2022/08/09 09:35:10;;;;;;;1.20;0.90;;;22.10;99.90;;;;;;5041904;28;20044;-72
2022/08/09 09:37:37;;;;;;;2.92;1.20;;;21.50;99.90;;;;;;5026144;28;20409;-72
2022/08/09 09:40:04;;;;;;;2.40;1.10;;;21.10;99.90;;;;;;4997942;28;20034;-71
2022/08/09 09:42:30;;;;;;;4.85;1.40;;;21.40;99.90;;;;;;5013239;28;20034;-72
2022/08/09 09:45:04;;;;;;;3.30;1.48;;;21.20;99.90;;;;;;5031242;28;20121;-72
2022/08/09 09:47:30;;;;;;;4.47;1.80;;;21.30;99.90;;;;;;5032691;28;20041;-71
2022/08/09 09:49:58;;;;;;;2.33;1.13;;;21.40;99.90;;;;;;5033088;28;20052;-71
2022/08/09 09:52:26;;;;;;;5.88;1.55;;;21.40;99.90;;;;;;5015732;28;20055;-72
2022/08/09 09:55:07;;;;;;;2.15;1.25;;;21.60;99.90;;;;;;4997836;28;20038;-72
2022/08/09 09:57:33;;;;;;;3.83;1.60;;;21.60;99.90;;;;;;5032867;28;20387;-72
2022/08/09 09:59:58;;;;;;;2.90;1.30;;;21.50;99.90;;;;;;5015422;28;20074;-72
2022/08/09 10:02:25;;;;;;;4.38;1.85;;;21.50;99.90;;;;;;5032629;28;20399;-72
2022/08/09 10:05:08;;;;;;;1.02;0.90;;;21.80;99.90;;;;;;4999003;28;20483;-72
2022/08/09 10:07:35;;;;;;;3.63;1.10;;;22.00;99.90;;;;;;5033022;28;20461;-72
2022/08/09 10:10:01;;;;;;;4.10;1.30;;;22.50;99.90;;;;;;4998369;28;20550;-72
2022/08/09 10:12:35;;;;;;;1.40;1.10;;;22.30;99.90;;;;;;5033554;28;20049;-72
2022/08/09 10:15:21;;;;;;;1.67;1.13;;;21.80;99.90;;;;;;5029242;28;20499;-72
2022/08/09 10:17:49;;;;;;;1.38;1.10;;;21.60;99.90;;;;;;5011981;28;20401;-72
2022/08/09 10:20:21;;;;;;;1.90;0.60;;;21.70;99.90;;;;;;5044298;28;20042;-72
2022/08/09 10:22:49;;;;;;;3.65;0.90;;;21.50;99.90;;;;;;4991687;28;20033;-72
2022/08/09 10:25:15;;;;;;;1.35;0.60;;;22.10;99.90;;;;;;5014091;28;20044;-72
2022/08/09 10:27:43;;;;;;;1.05;0.68;;;22.00;99.90;;;;;;5014488;28;20042;-72
2022/08/09 10:30:09;;;;;;;1.63;0.70;;;22.40;99.90;;;;;;5014529;28;20053;-72
2022/08/09 10:32:35;;;;;;;1.02;0.63;;;22.90;99.90;;;;;;5030837;28;20038;-72
2022/08/09 10:35:02;;;;;;;1.95;0.75;;;23.50;99.90;;;;;;5000591;28;20124;-73
2022/08/09 10:37:28;;;;;;;5.32;0.80;;;23.20;99.90;;;;;;4995562;28;20661;-74
2022/08/09 10:39:54;;;;;;;1.58;0.65;;;23.70;99.90;;;;;;4999252;28;20046;-73
2022/08/09 10:42:20;;;;;;;0.82;0.50;;;23.10;99.90;;;;;;5014984;28;20499;-73
2022/08/09 10:44:53;;;;;;;5.28;0.93;;;23.90;99.90;;;;;;5011246;28;20037;-73
2022/08/09 10:47:30;;;;;;;1.73;0.70;;;23.50;99.90;;;;;;5027380;28;20041;-73
2022/08/09 10:50:16;;;;;;;1.80;0.70;;;22.40;99.90;;;;;;5009352;28;20098;-73
2022/08/09 10:53:05;;;;;;;1.10;0.50;;;22.40;99.90;;;;;;5023105;28;20072;-72
2022/08/09 10:55:33;;;;;;;3.75;0.70;;;22.50;99.90;;;;;;5008041;28;20580;-72
2022/08/09 10:57:59;;;;;;;1.30;0.60;;;23.60;99.90;;;;;;5007525;28;20038;-73
2022/08/09 11:00:27;;;;;;;0.60;0.55;;;23.60;99.90;;;;;;5010949;28;20111;-73
2022/08/09 11:02:54;;;;;;;1.42;0.70;;;23.80;99.90;;;;;;5026669;28;20403;-72
2022/08/09 11:05:21;;;;;;;1.33;0.60;;;23.30;99.90;;;;;;5024009;28;20068;-73
2022/08/09 11:07:47;;;;;;;1.75;0.70;;;23.20;99.90;;;;;;4994487;28;20570;-73
2022/08/09 11:10:14;;;;;;;1.13;0.68;;;23.10;99.90;;;;;;5010568;28;20445;-73
2022/08/09 11:12:39;;;;;;;1.08;0.60;;;23.00;99.90;;;;;;4999183;28;20373;-72
2022/08/09 11:15:17;;;;;;;1.48;0.75;;;23.30;99.90;;;;;;5013120;28;21354;-72
2022/08/09 11:17:48;;;;;;;2.22;0.60;;;23.60;99.90;;;;;;5030577;28;20048;-71
2022/08/09 11:20:15;;;;;;;1.67;0.77;;;22.70;99.90;;;;;;5013739;28;20044;-71
2022/08/09 11:22:44;;;;;;;1.10;0.50;;;22.40;99.90;;;;;;5014104;28;20091;-71
2022/08/09 11:25:16;;;;;;;2.05;0.73;;;22.20;99.90;;;;;;5031040;28;20036;-72
2022/08/09 11:27:48;;;;;;;1.60;0.80;;;22.20;99.90;;;;;;5032156;28;20049;-71
2022/08/09 11:30:21;;;;;;;2.88;0.68;;;22.50;99.90;;;;;;5031794;28;20038;-72
2022/08/09 11:32:49;;;;;;;3.72;0.80;;;22.10;99.90;;;;;;5013678;28;20045;-72
2022/08/09 11:35:26;;;;;;;0.90;0.50;;;24.30;99.90;;;;;;5032164;28;20041;-72
2022/08/09 11:37:54;;;;;;;0.75;0.70;;;24.80;99.90;;;;;;5013309;28;20041;-71
2022/08/09 11:40:22;;;;;;;0.63;0.50;;;23.70;99.90;;;;;;5014401;28;20125;-72
2022/08/09 11:42:48;;;;;;;0.63;0.43;;;22.90;99.80;;;;;;5013473;28;20033;-72
2022/08/09 11:45:23;;;;;;;1.70;0.65;;;22.70;99.90;;;;;;5013218;28;20037;-71
2022/08/09 11:47:52;;;;;;;1.75;0.50;;;22.80;99.90;;;;;;5013917;28;20046;-72
2022/08/09 11:50:18;;;;;;;2.78;0.60;;;23.00;99.90;;;;;;4996652;28;20038;-72
2022/08/09 11:52:59;;;;;;;0.80;0.50;;;23.10;99.90;;;;;;4997556;28;20045;-72
2022/08/09 11:55:29;;;;;;;3.45;1.15;;;23.10;99.90;;;;;;5012842;28;20041;-71
2022/08/09 11:57:55;;;;;;;0.82;0.43;;;23.30;99.90;;;;;;5013859;28;20115;-72
2022/08/09 12:00:21;;;;;;;0.80;0.60;;;23.70;99.90;;;;;;5013441;28;20488;-72
2022/08/09 12:02:47;;;;;;;0.85;0.50;;;23.80;99.90;;;;;;5031557;28;20065;-72
2022/08/09 12:05:13;;;;;;;0.90;0.70;;;24.60;99.90;;;;;;5030916;28;20076;-72
2022/08/09 12:07:39;;;;;;;0.80;0.38;;;23.30;99.90;;;;;;5013176;28;20072;-71
2022/08/09 12:10:05;;;;;;;2.80;0.57;;;23.30;99.90;;;;;;5031169;28;20042;-72
2022/08/09 12:12:47;;;;;;;0.40;0.38;;;23.10;99.90;;;;;;5016026;28;20041;-71
2022/08/09 12:15:32;;;;;;;0.82;0.50;;;23.70;99.90;;;;;;5030457;28;20050;-72
2022/08/09 12:17:59;;;;;;;3.63;0.65;;;23.60;99.90;;;;;;5030661;28;20128;-73
2022/08/09 12:20:26;;;;;;;0.77;0.70;;;23.70;99.90;;;;;;5016492;28;20483;-71
2022/08/09 12:23:02;;;;;;;2.20;0.50;;;24.80;99.90;;;;;;5017274;28;20475;-72
2022/08/09 12:25:31;;;;;;;1.58;0.60;;;24.10;99.10;;;;;;5016227;28;20048;-71
2022/08/09 12:28:15;;;;;;;0.50;0.40;;;24.00;99.50;;;;;;5034798;28;20088;-71
2022/08/09 12:30:42;;;;;;;1.70;0.40;;;24.40;99.40;;;;;;5035175;28;20037;-72
2022/08/09 12:33:08;;;;;;;0.50;0.50;;;24.70;99.30;;;;;;5034387;28;20057;-72
2022/08/09 12:35:35;;;;;;;0.82;0.43;;;24.40;98.70;;;;;;5000303;28;20232;-71
2022/08/09 12:38:29;;;;;;;0.50;0.35;;;24.30;98.90;;;;;;5016687;28;20407;-72
2022/08/09 12:40:57;;;;;;;0.90;0.40;;;24.10;98.80;;;;;;5017439;28;20033;-72
2022/08/09 12:43:28;;;;;;;1.27;0.60;;;24.20;99.30;;;;;;5009699;28;20069;-72
2022/08/09 12:45:56;;;;;;;2.08;0.60;;;24.30;99.30;;;;;;5019797;28;20111;-71
2022/08/09 12:48:22;;;;;;;0.80;0.45;;;26.00;99.50;;;;;;5016677;28;20235;-71
2022/08/09 12:50:49;;;;;;;0.68;0.30;;;25.30;99.00;;;;;;5029615;28;20091;-72
2022/08/09 12:53:39;;;;;;;1.10;0.40;;;24.30;98.50;;;;;;5036503;28;20052;-71
2022/08/09 12:56:17;;;;;;;1.38;0.40;;;24.70;98.60;;;;;;5002486;28;20049;-71